createdAt,value
2023-01-15T00:01:48.868Z,100.00
2023-01-15T00:04:15.413Z,100.00
2023-01-15T00:06:42.530Z,100.00
2023-01-15T00:09:13.328Z,100.00
2023-01-15T00:11:39.859Z,100.00
2023-01-15T00:14:06.445Z,100.00
2023-01-15T00:16:32.942Z,100.00
2023-01-15T00:19:01.119Z,100.00
2023-01-15T00:21:28.444Z,100.00
2023-01-15T00:24:13.865Z,100.00
2023-01-15T00:26:59.036Z,100.00
2023-01-15T00:29:26.041Z,100.00
2023-01-15T00:32:12.763Z,100.00
2023-01-15T00:34:39.358Z,100.00
2023-01-15T00:37:05.915Z,100.00
2023-01-15T00:39:33.525Z,100.00
2023-01-15T00:42:00.086Z,100.00
2023-01-15T00:44:26.579Z,100.00
2023-01-15T00:46:53.159Z,100.00
2023-01-15T00:49:19.654Z,100.00
2023-01-15T00:51:46.283Z,100.00
2023-01-15T00:57:35.039Z,100.00
2023-01-15T01:00:01.599Z,100.00
2023-01-15T01:02:28.175Z,100.00
2023-01-15T01:04:54.806Z,100.00
2023-01-15T01:07:21.302Z,100.00
2023-01-15T01:09:48.754Z,100.00
2023-01-15T01:12:15.311Z,100.00
2023-01-15T01:14:41.972Z,100.00
2023-01-15T01:17:08.528Z,100.00
2023-01-15T01:19:36.629Z,100.00
2023-01-15T01:22:03.165Z,100.00
2023-01-15T01:24:29.706Z,100.00
2023-01-15T01:26:57.200Z,100.00
2023-01-15T01:29:24.577Z,100.00
2023-01-15T01:31:51.423Z,100.00
2023-01-15T01:34:18.163Z,100.00
2023-01-15T01:36:45.112Z,100.00
2023-01-15T01:39:16.226Z,100.00
2023-01-15T01:41:43.235Z,100.00
2023-01-15T01:44:28.669Z,100.00
2023-01-15T01:46:55.176Z,100.00
2023-01-15T01:49:21.875Z,100.00
2023-01-15T01:51:54.715Z,100.00
2023-01-15T01:54:21.621Z,100.00
2023-01-15T01:56:49.931Z,100.00
2023-01-15T01:59:17.767Z,100.00
2023-01-15T02:01:44.559Z,100.00
2023-01-15T02:04:11.811Z,100.00
2023-01-15T02:06:39.437Z,100.00
2023-01-15T02:09:05.959Z,100.00
2023-01-15T02:11:33.142Z,100.00
2023-01-15T02:14:13.006Z,100.00
2023-01-15T02:16:46.112Z,100.00
2023-01-15T02:19:18.581Z,100.00
2023-01-15T02:21:52.265Z,100.00
2023-01-15T02:24:27.405Z,100.00
2023-01-15T02:27:28.747Z,100.00
2023-01-15T02:29:55.457Z,100.00
2023-01-15T02:32:40.711Z,100.00
2023-01-15T02:35:11.751Z,100.00
2023-01-15T02:37:41.856Z,100.00
2023-01-15T02:40:09.430Z,100.00
2023-01-15T02:42:36.879Z,100.00
2023-01-15T02:45:04.825Z,100.00
2023-01-15T02:47:33.960Z,100.00
2023-01-15T02:50:02.576Z,100.00
2023-01-15T02:52:32.861Z,100.00
2023-01-15T02:55:02.949Z,100.00
2023-01-15T02:57:33.003Z,100.00
2023-01-15T03:00:01.779Z,100.00
2023-01-15T03:02:32.020Z,100.00
2023-01-15T03:05:06.145Z,100.00
2023-01-15T03:07:37.484Z,100.00
2023-01-15T03:10:05.656Z,100.00
2023-01-15T03:12:58.275Z,100.00
2023-01-15T03:15:44.751Z,100.00
2023-01-15T03:18:13.135Z,100.00
2023-01-15T03:20:42.881Z,100.00
2023-01-15T03:23:11.453Z,100.00
2023-01-15T03:25:40.762Z,100.00
2023-01-15T03:28:09.408Z,100.00
2023-01-15T03:30:35.921Z,100.00
2023-01-15T03:33:02.539Z,100.00
2023-01-15T03:35:47.590Z,100.00
2023-01-15T03:38:15.057Z,100.00
2023-01-15T03:40:50.418Z,100.00
2023-01-15T03:43:38.584Z,100.00
2023-01-15T03:46:13.972Z,100.00
2023-01-15T03:48:59.226Z,100.00
2023-01-15T03:51:33.804Z,100.00
2023-01-15T03:54:02.884Z,100.00
2023-01-15T03:56:38.356Z,100.00
2023-01-15T03:59:04.839Z,100.00
2023-01-15T04:01:35.002Z,100.00
2023-01-15T04:04:02.651Z,100.00
2023-01-15T04:06:30.934Z,100.00
2023-01-15T04:08:57.889Z,100.00
2023-01-15T04:11:25.517Z,100.00
2023-01-15T04:13:52.415Z,100.00
2023-01-15T04:16:25.555Z,100.00
2023-01-15T04:18:52.692Z,100.00
2023-01-15T04:21:19.267Z,100.00
2023-01-15T04:23:46.294Z,100.00
2023-01-15T04:26:13.284Z,100.00
2023-01-15T04:28:40.004Z,100.00
2023-01-15T04:31:06.662Z,100.00
2023-01-15T04:33:33.218Z,100.00
2023-01-15T04:36:03.374Z,100.00
2023-01-15T04:38:29.920Z,100.00
2023-01-15T04:41:18.760Z,100.00
2023-01-15T04:44:03.848Z,100.00
2023-01-15T04:46:30.496Z,100.00
2023-01-15T04:48:56.992Z,100.00
2023-01-15T04:51:23.519Z,100.00
2023-01-15T04:53:50.047Z,100.00
2023-01-15T04:56:16.577Z,100.00
2023-01-15T04:58:43.361Z,100.00
2023-01-15T05:01:13.500Z,100.00
2023-01-15T05:03:40.190Z,100.00
2023-01-15T05:06:06.856Z,100.00
2023-01-15T05:08:33.915Z,100.00
2023-01-15T05:11:04.677Z,100.00
2023-01-15T05:13:33.462Z,100.00
2023-01-15T05:16:09.858Z,100.00
2023-01-15T05:18:36.586Z,100.00
2023-01-15T05:21:03.594Z,100.00
2023-01-15T05:23:30.261Z,100.00
2023-01-15T05:25:56.819Z,100.00
2023-01-15T05:28:23.311Z,100.00
2023-01-15T05:30:49.854Z,100.00
2023-01-15T05:33:16.349Z,100.00
2023-01-15T05:35:42.868Z,100.00
2023-01-15T05:38:09.355Z,100.00
2023-01-15T05:40:36.228Z,100.00
2023-01-15T05:43:02.733Z,100.00
2023-01-15T05:45:29.250Z,100.00
2023-01-15T05:47:55.755Z,100.00
2023-01-15T05:50:22.255Z,100.00
2023-01-15T05:52:48.754Z,100.00
2023-01-15T05:55:15.249Z,100.00
2023-01-15T05:57:41.740Z,100.00
2023-01-15T06:00:08.657Z,100.00
2023-01-15T06:02:35.151Z,100.00
2023-01-15T06:05:01.676Z,100.00
2023-01-15T06:07:28.216Z,100.00
2023-01-15T06:09:54.791Z,100.00
2023-01-15T06:12:21.298Z,100.00
2023-01-15T06:14:47.788Z,100.00
2023-01-15T06:17:15.241Z,100.00
2023-01-15T06:19:41.719Z,100.00
2023-01-15T06:22:10.243Z,100.00
2023-01-15T06:24:37.508Z,100.00
2023-01-15T06:27:04.064Z,100.00
2023-01-15T06:29:31.130Z,100.00
2023-01-15T06:31:57.595Z,100.00
2023-01-15T06:34:24.097Z,100.00
2023-01-15T06:36:50.605Z,100.00
2023-01-15T06:39:17.143Z,100.00
2023-01-15T06:42:18.940Z,100.00
2023-01-15T06:45:03.910Z,100.00
2023-01-15T06:47:30.765Z,100.00
2023-01-15T06:49:58.120Z,100.00
2023-01-15T06:52:25.569Z,100.00
2023-01-15T06:54:52.366Z,100.00
2023-01-15T06:57:19.059Z,100.00
2023-01-15T06:59:45.678Z,100.00
2023-01-15T07:02:12.309Z,100.00
2023-01-15T07:04:38.831Z,100.00
2023-01-15T07:07:05.420Z,100.00
2023-01-15T07:09:31.986Z,100.00
2023-01-15T07:11:58.559Z,100.00
2023-01-15T07:14:26.822Z,100.00
2023-01-15T07:16:53.470Z,100.00
2023-01-15T07:19:20.398Z,100.00
2023-01-15T07:21:47.018Z,100.00
2023-01-15T07:24:14.103Z,100.00
2023-01-15T07:26:41.140Z,100.00
2023-01-15T07:29:07.736Z,100.00
2023-01-15T07:31:34.523Z,100.00
2023-01-15T07:34:01.183Z,100.00
2023-01-15T07:36:27.902Z,100.00
2023-01-15T07:38:54.517Z,100.00
2023-01-15T07:41:39.698Z,100.00
2023-01-15T07:44:24.829Z,100.00
2023-01-15T07:47:09.937Z,100.00
2023-01-15T07:49:49.089Z,100.00
2023-01-15T07:52:20.424Z,100.00
2023-01-15T07:54:47.750Z,100.00
2023-01-15T07:57:16.000Z,100.00
2023-01-15T07:59:42.589Z,100.00
2023-01-15T08:02:09.426Z,100.00
2023-01-15T08:04:36.030Z,100.00
2023-01-15T08:07:03.386Z,100.00
2023-01-15T08:09:30.401Z,100.00
2023-01-15T08:12:17.410Z,100.00
2023-01-15T08:15:02.643Z,100.00
2023-01-15T08:17:29.199Z,100.00
2023-01-15T08:19:55.890Z,100.00
2023-01-15T08:22:22.458Z,100.00
2023-01-15T08:24:49.044Z,100.00
2023-01-15T08:27:15.541Z,100.00
2023-01-15T08:29:42.091Z,100.00
2023-01-15T08:32:09.021Z,100.00
2023-01-15T08:34:35.548Z,100.00
2023-01-15T08:37:02.101Z,100.00
2023-01-15T08:39:28.885Z,100.00
2023-01-15T08:41:56.105Z,100.00
2023-01-15T08:44:23.764Z,100.00
2023-01-15T08:46:50.901Z,100.00
2023-01-15T08:49:17.877Z,100.00
2023-01-15T08:51:45.109Z,100.00
2023-01-15T08:54:12.369Z,100.00
2023-01-15T08:56:38.914Z,100.00
2023-01-15T08:59:06.297Z,100.00
2023-01-15T09:01:32.969Z,100.00
2023-01-15T09:03:59.637Z,100.00
2023-01-15T09:06:26.444Z,100.00
2023-01-15T09:08:53.255Z,100.00
2023-01-15T09:11:19.796Z,100.00
2023-01-15T09:13:50.399Z,100.00
2023-01-15T09:16:17.510Z,100.00
2023-01-15T09:18:44.423Z,100.00
2023-01-15T09:21:11.039Z,100.00
2023-01-15T09:23:37.774Z,100.00
2023-01-15T09:26:06.261Z,100.00
2023-01-15T09:28:33.523Z,100.00
2023-01-15T09:31:00.598Z,100.00
2023-01-15T09:33:27.179Z,100.00
2023-01-15T09:35:53.765Z,100.00
2023-01-15T09:38:21.363Z,100.00
2023-01-15T09:40:52.508Z,100.00
2023-01-15T09:43:44.969Z,100.00
2023-01-15T09:46:20.531Z,100.00
2023-01-15T09:48:47.061Z,100.00
2023-01-15T09:51:19.390Z,100.00
2023-01-15T09:53:54.501Z,100.00
2023-01-15T09:56:23.564Z,100.00
2023-01-15T09:58:50.781Z,100.00
2023-01-15T10:01:19.540Z,100.00
2023-01-15T10:03:52.701Z,100.00
2023-01-15T10:06:42.366Z,100.00
2023-01-15T10:09:14.773Z,100.00
2023-01-15T10:12:06.089Z,100.00
2023-01-15T10:14:39.696Z,100.00
2023-01-15T10:17:15.115Z,100.00
2023-01-15T10:19:44.868Z,100.00
2023-01-15T10:22:17.522Z,100.00
2023-01-15T10:24:48.973Z,100.00
2023-01-15T10:27:18.287Z,100.00
2023-01-15T10:30:03.193Z,100.00
2023-01-15T10:32:38.319Z,100.00
2023-01-15T10:35:17.110Z,100.00
2023-01-15T10:38:05.514Z,100.00
2023-01-15T10:40:40.715Z,100.00
2023-01-15T10:43:19.516Z,100.00
2023-01-15T10:45:46.053Z,100.00
2023-01-15T10:48:17.626Z,100.00
2023-01-15T10:50:44.220Z,100.00
2023-01-15T10:53:13.848Z,100.00
2023-01-15T10:55:44.126Z,100.00
2023-01-15T10:58:21.511Z,100.00
2023-01-15T11:00:51.719Z,100.00
2023-01-15T11:03:21.123Z,100.00
2023-01-15T11:05:47.852Z,100.00
2023-01-15T11:09:02.257Z,100.00
2023-01-15T11:11:18.427Z,99.21
2023-01-15T11:14:15.580Z,100.00
2023-01-15T11:17:02.162Z,99.60
2023-01-15T11:19:40.450Z,99.74
2023-01-15T11:22:12.269Z,96.53
2023-01-15T11:24:45.588Z,97.36
2023-01-15T11:27:15.477Z,97.55
2023-01-15T11:29:44.135Z,97.76
2023-01-15T11:32:22.042Z,99.31
2023-01-15T11:34:58.551Z,98.87
2023-01-15T11:37:25.512Z,99.60
2023-01-15T11:39:55.731Z,99.77
2023-01-15T11:43:00.544Z,99.25
2023-01-15T11:45:45.411Z,97.20
2023-01-15T11:48:37.777Z,95.37
2023-01-15T11:51:08.808Z,93.02
2023-01-15T11:53:39.129Z,93.68
2023-01-15T11:56:08.775Z,93.82
2023-01-15T11:58:46.984Z,93.79
2023-01-15T12:01:21.275Z,93.98
2023-01-15T12:03:48.024Z,94.31
2023-01-15T12:06:15.059Z,93.19
2023-01-15T12:08:45.972Z,93.47
2023-01-15T12:11:26.997Z,94.84
2023-01-15T12:14:24.652Z,93.18
2023-01-15T12:17:02.703Z,91.95
2023-01-15T12:19:39.482Z,91.38
2023-01-15T12:22:06.003Z,92.48
2023-01-15T12:24:40.270Z,97.31
2023-01-15T12:27:19.918Z,97.58
2023-01-15T12:29:49.929Z,98.04
2023-01-15T12:32:18.490Z,99.79
2023-01-15T12:34:54.200Z,100.00
2023-01-15T12:37:27.124Z,100.00
2023-01-15T12:39:59.812Z,100.00
2023-01-15T12:42:46.287Z,100.00
2023-01-15T12:45:16.560Z,100.00
2023-01-15T12:47:43.074Z,100.00
2023-01-15T12:50:27.965Z,100.00
2023-01-15T12:52:59.144Z,100.00
2023-01-15T12:55:28.415Z,100.00
2023-01-15T12:58:00.511Z,100.00
2023-01-15T13:00:39.456Z,100.00
2023-01-15T13:03:05.990Z,100.00
2023-01-15T13:05:47.824Z,100.00
2023-01-15T13:08:23.396Z,100.00
2023-01-15T13:10:50.541Z,100.00
2023-01-15T13:13:23.053Z,100.00
2023-01-15T13:16:04.283Z,100.00
2023-01-15T13:18:30.775Z,100.00
2023-01-15T13:20:58.962Z,100.00
2023-01-15T13:23:31.707Z,100.00
2023-01-15T13:25:58.217Z,100.00
2023-01-15T13:28:34.462Z,100.00
2023-01-15T13:31:05.848Z,100.00
2023-01-15T13:33:32.345Z,100.00
2023-01-15T13:36:11.365Z,100.00
2023-01-15T13:38:41.873Z,100.00
2023-01-15T13:41:08.744Z,100.00
2023-01-15T13:43:40.387Z,100.00
2023-01-15T13:46:19.383Z,100.00
2023-01-15T13:48:47.798Z,100.00
2023-01-15T13:51:37.533Z,100.00
2023-01-15T13:54:04.353Z,100.00
2023-01-15T13:56:32.411Z,100.00
2023-01-15T13:59:00.154Z,100.00
2023-01-15T14:01:37.125Z,100.00
2023-01-15T14:04:04.213Z,100.00
2023-01-15T14:06:36.549Z,100.00
2023-01-15T14:09:05.256Z,100.00
2023-01-15T14:11:36.603Z,100.00
2023-01-15T14:14:29.529Z,100.00
2023-01-15T14:17:12.549Z,100.00
2023-01-15T14:19:46.568Z,100.00
2023-01-15T14:22:25.251Z,100.00
2023-01-15T14:24:54.530Z,100.00
2023-01-15T14:27:41.313Z,100.00
2023-01-15T14:30:20.622Z,100.00
2023-01-15T14:32:56.081Z,100.00
2023-01-15T14:35:24.375Z,100.00
2023-01-15T14:37:51.454Z,100.00
2023-01-15T14:40:25.440Z,100.00
2023-01-15T14:43:02.874Z,100.00
2023-01-15T14:45:37.193Z,100.00
2023-01-15T14:48:17.771Z,100.00
2023-01-15T14:50:44.884Z,100.00
2023-01-15T14:53:11.362Z,100.00
2023-01-15T14:55:39.868Z,100.00
2023-01-15T14:58:14.547Z,100.00
2023-01-15T15:00:44.056Z,100.00
2023-01-15T15:03:16.471Z,100.00
2023-01-15T15:05:44.507Z,100.00
2023-01-15T15:08:14.815Z,100.00
2023-01-15T15:10:43.802Z,100.00
2023-01-15T15:13:19.223Z,100.00
2023-01-15T15:16:04.380Z,100.00
2023-01-15T15:18:42.966Z,100.00
2023-01-15T15:21:32.734Z,100.00
2023-01-15T15:24:02.996Z,100.00
2023-01-15T15:26:30.716Z,100.00
2023-01-15T15:29:01.771Z,100.00
2023-01-15T15:31:30.926Z,100.00
2023-01-15T15:33:58.613Z,100.00
2023-01-15T15:36:27.673Z,100.00
2023-01-15T15:38:54.171Z,100.00
2023-01-15T15:41:42.405Z,100.00
2023-01-15T15:44:31.962Z,100.00
2023-01-15T15:47:16.856Z,100.00
2023-01-15T15:49:43.368Z,100.00
2023-01-15T15:52:15.664Z,100.00
2023-01-15T15:54:42.151Z,100.00
2023-01-15T15:57:13.989Z,100.00
2023-01-15T15:59:51.254Z,100.00
2023-01-15T16:02:34.470Z,100.00
2023-01-15T16:05:02.828Z,100.00
2023-01-15T16:07:33.710Z,100.00
2023-01-15T16:10:07.297Z,100.00
2023-01-15T16:12:36.521Z,100.00
2023-01-15T16:15:04.093Z,100.00
2023-01-15T16:17:31.032Z,100.00
2023-01-15T16:19:58.005Z,100.00
2023-01-15T16:22:24.673Z,100.00
2023-01-15T16:24:55.982Z,100.00
2023-01-15T16:27:24.141Z,100.00
2023-01-15T16:29:53.637Z,100.00
2023-01-15T16:32:39.357Z,100.00
2023-01-15T16:35:07.742Z,100.00
2023-01-15T16:37:35.852Z,100.00
2023-01-15T16:40:03.517Z,100.00
2023-01-15T16:42:35.401Z,100.00
2023-01-15T16:45:04.747Z,100.00
2023-01-15T16:47:36.077Z,100.00
2023-01-15T16:50:25.339Z,100.00
2023-01-15T16:52:53.038Z,100.00
2023-01-15T16:55:34.632Z,100.00
2023-01-15T16:58:13.181Z,100.00
2023-01-15T17:00:43.713Z,100.00
2023-01-15T17:03:23.457Z,100.00
2023-01-15T17:05:57.611Z,100.00
2023-01-15T17:08:30.954Z,100.00
2023-01-15T17:11:01.795Z,100.00
2023-01-15T17:13:33.185Z,100.00
2023-01-15T17:16:07.293Z,100.00
2023-01-15T17:18:34.145Z,100.00
2023-01-15T17:21:01.077Z,100.00
2023-01-15T17:23:28.597Z,100.00
2023-01-15T17:25:55.576Z,100.00
2023-01-15T17:28:24.623Z,100.00
2023-01-15T17:30:52.793Z,100.00
2023-01-15T17:33:20.016Z,100.00
2023-01-15T17:35:48.886Z,100.00
2023-01-15T17:38:16.072Z,100.00
2023-01-15T17:40:43.112Z,100.00
2023-01-15T17:43:12.435Z,100.00
2023-01-15T17:45:39.056Z,100.00
2023-01-15T17:48:08.927Z,100.00
2023-01-15T17:50:37.043Z,100.00
2023-01-15T17:53:04.774Z,100.00
2023-01-15T17:55:49.711Z,100.00
2023-01-15T17:58:35.132Z,100.00
2023-01-15T18:01:22.729Z,100.00
2023-01-15T18:04:12.321Z,100.00
2023-01-15T18:06:40.170Z,100.00
2023-01-15T18:09:07.919Z,100.00
2023-01-15T18:11:34.565Z,100.00
2023-01-15T18:14:01.057Z,100.00
2023-01-15T18:16:28.231Z,100.00
2023-01-15T18:18:54.984Z,100.00
2023-01-15T18:21:21.880Z,100.00
2023-01-15T18:23:48.481Z,100.00
2023-01-15T18:26:15.030Z,100.00
2023-01-15T18:28:41.685Z,100.00
2023-01-15T18:31:08.564Z,100.00
2023-01-15T18:33:35.252Z,100.00
2023-01-15T18:36:09.180Z,100.00
2023-01-15T18:38:40.487Z,100.00
2023-01-15T18:41:08.003Z,100.00
2023-01-15T18:43:53.192Z,100.00
2023-01-15T18:46:43.547Z,100.00
2023-01-15T18:49:10.119Z,100.00
2023-01-15T18:51:36.655Z,100.00
2023-01-15T18:54:04.816Z,100.00
2023-01-15T18:56:40.470Z,100.00
2023-01-15T18:59:08.292Z,100.00
2023-01-15T19:01:35.028Z,100.00
2023-01-15T19:04:01.799Z,100.00
2023-01-15T19:06:28.320Z,100.00
2023-01-15T19:08:54.855Z,100.00
2023-01-15T19:11:21.346Z,100.00
2023-01-15T19:14:07.873Z,100.00
2023-01-15T19:16:52.773Z,100.00
2023-01-15T19:19:19.333Z,100.00
2023-01-15T19:21:46.960Z,100.00
2023-01-15T19:24:13.715Z,100.00
2023-01-15T19:26:40.269Z,100.00
2023-01-15T19:29:06.807Z,100.00
2023-01-15T19:31:37.195Z,100.00
2023-01-15T19:34:32.076Z,100.00
2023-01-15T19:36:54.731Z,100.00
2023-01-15T19:39:21.584Z,100.00
2023-01-15T19:42:06.518Z,100.00
2023-01-15T19:44:51.787Z,100.00
2023-01-15T19:47:40.885Z,100.00
2023-01-15T19:50:20.354Z,100.00
2023-01-15T19:52:46.942Z,100.00
2023-01-15T19:55:15.164Z,100.00
2023-01-15T19:57:42.660Z,100.00
2023-01-15T20:00:11.224Z,100.00
2023-01-15T20:02:37.807Z,100.00
2023-01-15T20:05:05.364Z,100.00
2023-01-15T20:07:32.168Z,100.00
2023-01-15T20:09:58.749Z,100.00
2023-01-15T20:12:44.026Z,100.00
2023-01-15T20:15:10.640Z,100.00
2023-01-15T20:17:37.137Z,100.00
2023-01-15T20:20:03.896Z,100.00
2023-01-15T20:22:31.153Z,100.00
2023-01-15T20:24:57.734Z,100.00
2023-01-15T20:27:24.263Z,100.00
2023-01-15T20:29:54.234Z,100.00
2023-01-15T20:32:20.792Z,100.00
2023-01-15T20:34:47.912Z,100.00
2023-01-15T20:37:14.444Z,100.00
2023-01-15T20:39:40.935Z,100.00
2023-01-15T20:42:25.778Z,100.00
2023-01-15T20:44:55.269Z,100.00
2023-01-15T20:47:44.356Z,100.00
2023-01-15T20:50:12.233Z,100.00
2023-01-15T20:52:41.460Z,100.00
2023-01-15T20:55:08.100Z,100.00
2023-01-15T20:57:35.842Z,100.00
2023-01-15T21:00:04.628Z,100.00
2023-01-15T21:02:31.184Z,100.00
2023-01-15T21:04:57.668Z,100.00
2023-01-15T21:07:24.319Z,100.00
2023-01-15T21:09:50.852Z,100.00
2023-01-15T21:12:17.424Z,100.00
2023-01-15T21:14:44.001Z,100.00
2023-01-15T21:17:10.564Z,100.00
2023-01-15T21:19:37.067Z,100.00
2023-01-15T21:22:03.627Z,100.00
2023-01-15T21:24:30.173Z,100.00
2023-01-15T21:26:56.669Z,100.00
2023-01-15T21:29:24.430Z,100.00
2023-01-15T21:31:51.406Z,100.00
2023-01-15T21:34:18.009Z,100.00
2023-01-15T21:36:44.494Z,100.00
2023-01-15T21:39:12.021Z,100.00
2023-01-15T21:41:57.235Z,100.00
2023-01-15T21:44:43.005Z,100.00
2023-01-15T21:47:11.307Z,100.00
2023-01-15T21:49:38.206Z,100.00
2023-01-15T21:52:06.110Z,100.00
2023-01-15T21:54:32.707Z,100.00
2023-01-15T21:56:59.286Z,100.00
2023-01-15T21:59:25.869Z,100.00
2023-01-15T22:01:56.116Z,100.00
2023-01-15T22:04:26.554Z,100.00
2023-01-15T22:06:53.342Z,100.00
2023-01-15T22:09:19.881Z,100.00
2023-01-15T22:11:46.630Z,100.00
2023-01-15T22:14:17.134Z,100.00
2023-01-15T22:16:44.781Z,100.00
2023-01-15T22:19:12.484Z,100.00
2023-01-15T22:21:39.011Z,100.00
2023-01-15T22:24:05.697Z,100.00
2023-01-15T22:26:32.238Z,100.00
2023-01-15T22:28:59.366Z,100.00
2023-01-15T22:31:28.754Z,100.00
2023-01-15T22:33:57.895Z,100.00
2023-01-15T22:36:26.781Z,100.00
2023-01-15T22:38:54.970Z,100.00
2023-01-15T22:41:44.846Z,100.00
2023-01-15T22:44:11.385Z,100.00
2023-01-15T22:46:37.931Z,100.00
2023-01-15T22:49:04.433Z,100.00
2023-01-15T22:51:30.993Z,100.00
2023-01-15T22:53:57.778Z,100.00
2023-01-15T22:56:25.229Z,100.00
2023-01-15T22:58:54.967Z,100.00
2023-01-15T23:01:22.198Z,100.00
2023-01-15T23:03:49.031Z,100.00
2023-01-15T23:06:15.941Z,100.00
2023-01-15T23:08:42.488Z,100.00
2023-01-15T23:11:11.921Z,100.00
2023-01-15T23:13:39.015Z,100.00
2023-01-15T23:16:06.105Z,100.00
2023-01-15T23:18:34.720Z,100.00
2023-01-15T23:21:06.365Z,100.00
2023-01-15T23:23:33.799Z,100.00
2023-01-15T23:26:01.072Z,100.00
2023-01-15T23:28:27.694Z,100.00
2023-01-15T23:30:54.184Z,100.00
2023-01-15T23:33:20.748Z,100.00
2023-01-15T23:35:47.322Z,100.00
2023-01-15T23:38:13.820Z,100.00
2023-01-15T23:40:41.150Z,100.00
2023-01-15T23:43:27.084Z,100.00
2023-01-15T23:46:11.979Z,100.00
2023-01-15T23:48:38.491Z,100.00
2023-01-15T23:51:05.108Z,100.00
2023-01-15T23:53:31.904Z,100.00
2023-01-15T23:56:02.169Z,100.00
2023-01-15T23:58:28.999Z,100.00
